Time;durP1;ratioP1;P1;durP2;ratioP2;P2;SDS_P1;SDS_P2;PMS_P1;PMS_P2;Temp;Humidity;BMP_temperature;BMP_pressure;BME280_temperature;BME280_humidity;BME280_pressure;Samples;Min_cycle;Max_cycle;Signal;HPM_P1;HPM_P2
2022/11/29 00:02:28;;;;;;;14.73;10.10;;;;;;;5.63;87.09;101550.25;6087417;29;20220;-74
2022/11/29 00:05:50;;;;;;;8.77;7.60;;;;;;;5.66;87.66;101551.91;6091767;29;20327;-76
2022/11/29 00:09:13;;;;;;;8.93;7.10;;;;;;;5.50;87.00;101543.03;6079823;28;20229;-75
2022/11/29 00:12:33;;;;;;;12.47;8.33;;;;;;;5.62;87.36;101551.22;6090169;29;20241;-75
2022/11/29 00:16:02;;;;;;;12.27;8.67;;;;;;;5.72;87.27;101545.31;6093086;29;20244;-75
2022/11/29 00:19:23;;;;;;;14.40;10.27;;;;;;;5.70;87.12;101553.44;6084158;29;20244;-75
2022/11/29 00:22:44;;;;;;;13.50;8.97;;;;;;;5.64;87.37;101549.31;6095142;29;20504;-75
2022/11/29 00:26:06;;;;;;;15.97;10.50;;;;;;;5.62;87.65;101547.69;6087818;29;20580;-75
2022/11/29 00:29:28;;;;;;;10.23;8.10;;;;;;;5.64;87.59;101543.09;6076798;28;20236;-75
2022/11/29 00:32:51;;;;;;;12.57;9.73;;;;;;;5.61;87.31;101549.50;6093999;28;20279;-75
2022/11/29 00:36:12;;;;;;;14.20;11.80;;;;;;;5.52;87.04;101543.81;6084126;29;20268;-75
2022/11/29 00:39:33;;;;;;;11.23;9.13;;;;;;;5.52;87.71;101546.50;6083266;29;20232;-75
2022/11/29 00:42:54;;;;;;;16.73;10.00;;;;;;;5.52;87.66;101547.38;6091570;29;20534;-75
2022/11/29 00:46:15;;;;;;;18.00;11.00;;;;;;;5.49;87.64;101543.97;6090593;29;21138;-75
2022/11/29 00:49:37;;;;;;;10.90;9.17;;;;;;;5.45;87.46;101547.78;6083036;29;20514;-75
2022/11/29 00:52:58;;;;;;;15.40;9.93;;;;;;;5.51;87.64;101556.31;6093079;29;20240;-75
2022/11/29 00:56:19;;;;;;;12.73;9.00;;;;;;;5.53;87.69;101538.38;6092584;29;20653;-75
2022/11/29 00:59:39;;;;;;;19.37;10.03;;;;;;;5.55;87.12;101546.31;6083227;29;20229;-75
2022/11/29 01:03:01;;;;;;;15.80;10.33;;;;;;;5.46;87.61;101549.53;6093168;29;20558;-74
2022/11/29 01:06:23;;;;;;;14.80;10.23;;;;;;;5.50;87.40;101541.25;6082435;29;20678;-75
2022/11/29 01:09:44;;;;;;;14.60;10.17;;;;;;;5.34;87.61;101550.22;6081917;29;20240;-74
2022/11/29 01:13:05;;;;;;;16.83;11.60;;;;;;;5.38;88.05;101549.09;6087186;29;20236;-77
2022/11/29 01:16:26;;;;;;;14.67;9.63;;;;;;;5.34;87.85;101551.06;6076212;29;20236;-76
2022/11/29 01:19:47;;;;;;;14.67;11.20;;;;;;;5.32;87.81;101549.44;6081442;29;20631;-76
2022/11/29 01:23:09;;;;;;;18.80;10.27;;;;;;;5.42;87.56;101554.16;6091099;29;20881;-75
2022/11/29 01:26:31;;;;;;;14.87;10.23;;;;;;;5.43;87.96;101555.91;6092001;29;20224;-76
2022/11/29 01:29:52;;;;;;;14.93;8.90;;;;;;;5.48;87.80;101551.16;6086658;29;20231;-75
2022/11/29 01:33:13;;;;;;;13.90;10.23;;;;;;;5.44;87.51;101556.78;6090300;29;20289;-75
2022/11/29 01:36:34;;;;;;;15.97;9.63;;;;;;;5.30;87.75;101559.38;6087660;29;20228;-75
2022/11/29 01:39:56;;;;;;;14.53;8.57;;;;;;;5.40;87.33;101555.22;6080458;29;20232;-75
2022/11/29 01:43:18;;;;;;;13.60;10.00;;;;;;;5.39;87.88;101561.50;6087933;29;20561;-76
2022/11/29 01:46:40;;;;;;;14.03;11.10;;;;;;;5.39;87.37;101551.69;6088957;29;20549;-76
2022/11/29 01:50:03;;;;;;;16.73;11.60;;;;;;;5.37;87.90;101563.41;6086644;29;20883;-76
2022/11/29 01:53:24;;;;;;;13.13;10.50;;;;;;;5.37;87.75;101563.41;6090711;29;20782;-75
2022/11/29 01:56:49;;;;;;;16.23;10.57;;;;;;;5.34;88.03;101566.25;6090945;29;20237;-76
2022/11/29 02:00:14;;;;;;;15.47;11.63;;;;;;;5.13;87.86;101554.94;6086181;29;20577;-76
2022/11/29 02:03:35;;;;;;;15.63;11.50;;;;;;;5.27;87.68;101564.88;6085784;29;20245;-75
2022/11/29 02:06:56;;;;;;;12.40;9.63;;;;;;;5.22;87.94;101567.78;6078624;29;20236;-75
2022/11/29 02:10:17;;;;;;;16.33;10.57;;;;;;;5.29;87.48;101563.84;6082312;29;20240;-76
2022/11/29 02:13:52;;;;;;;13.90;10.83;;;;;;;5.38;87.45;101562.47;6090971;28;20626;-76
2022/11/29 02:17:23;;;;;;;20.67;11.20;;;;;;;5.39;87.06;101572.19;6084220;29;20240;-75
2022/11/29 02:21:27;;;;;;;16.97;11.27;;;;;;;5.40;87.09;101566.75;6094316;29;20227;-75
2022/11/29 02:25:16;;;;;;;16.17;10.47;;;;;;;5.32;87.26;101576.19;6049145;29;20237;-75
2022/11/29 02:29:05;;;;;;;15.63;9.77;;;;;;;5.32;87.07;101577.00;6060945;29;20595;-75
2022/11/29 02:32:54;;;;;;;11.50;9.83;;;;;;;5.19;87.02;101565.31;6079851;29;20271;-73
2022/11/29 02:36:35;;;;;;;14.90;10.37;;;;;;;5.24;87.75;101575.72;6082244;29;20232;-76
2022/11/29 02:40:13;;;;;;;11.57;9.67;;;;;;;5.36;87.22;101575.06;6057879;29;20607;-75
2022/11/29 02:43:49;;;;;;;14.83;10.80;;;;;;;5.38;86.95;101575.84;6089123;29;20236;-75
2022/11/29 02:47:19;;;;;;;14.53;11.07;;;;;;;5.32;87.25;101578.84;6077950;29;20588;-75
2022/11/29 02:50:46;;;;;;;16.90;10.97;;;;;;;5.21;87.13;101579.44;6080025;29;20239;-75
2022/11/29 02:54:15;;;;;;;18.83;11.97;;;;;;;5.31;87.27;101583.31;6079551;29;20245;-75
2022/11/29 02:57:43;;;;;;;14.93;11.13;;;;;;;5.30;87.12;101583.41;6080334;28;20542;-75
2022/11/29 03:01:11;;;;;;;17.77;11.80;;;;;;;5.38;86.83;101583.84;6077092;29;20244;-75
2022/11/29 03:04:37;;;;;;;18.90;13.00;;;;;;;5.23;87.46;101587.38;6069771;29;20274;-75
2022/11/29 03:08:09;;;;;;;14.87;9.90;;;;;;;5.22;87.18;101586.50;6093657;29;20255;-75
2022/11/29 03:11:41;;;;;;;15.43;11.43;;;;;;;5.12;87.15;101592.44;6065681;29;20244;-74
2022/11/29 03:15:18;;;;;;;18.67;12.07;;;;;;;5.11;87.30;101596.06;6081445;29;20247;-76
2022/11/29 03:18:54;;;;;;;20.67;14.03;;;;;;;4.98;87.33;101608.34;6093081;29;20500;-75
2022/11/29 03:22:27;;;;;;;16.70;12.07;;;;;;;5.02;87.78;101607.25;6095550;29;20607;-76
2022/11/29 03:25:54;;;;;;;17.93;10.97;;;;;;;5.15;87.33;101608.31;6086398;29;20239;-76
2022/11/29 03:29:24;;;;;;;28.27;15.53;;;;;;;5.14;87.04;101614.59;6093391;29;20248;-75
2022/11/29 03:32:56;;;;;;;17.27;11.17;;;;;;;5.21;87.09;101616.88;6088692;29;20244;-76
2022/11/29 03:36:28;;;;;;;25.30;13.50;;;;;;;5.27;86.71;101619.19;6090900;28;20236;-76
2022/11/29 03:39:52;;;;;;;23.40;13.10;;;;;;;5.17;87.44;101614.44;6078390;29;20228;-75
2022/11/29 03:43:20;;;;;;;19.37;13.00;;;;;;;5.17;87.52;101614.44;6100112;29;20232;-75
2022/11/29 03:46:50;;;;;;;13.20;11.03;;;;;;;5.28;86.67;101618.22;6091917;29;20322;-75
2022/11/29 03:50:14;;;;;;;22.57;14.30;;;;;;;5.36;86.37;101620.50;6087155;28;20508;-76
2022/11/29 03:53:43;;;;;;;17.37;12.27;;;;;;;5.14;86.72;101612.78;6097128;29;20228;-75
2022/11/29 03:57:04;;;;;;;17.07;11.60;;;;;;;5.27;86.73;101621.88;6094117;29;20769;-75
2022/11/29 04:00:33;;;;;;;21.93;12.97;;;;;;;5.13;86.40;101619.06;6084940;29;20240;-76
2022/11/29 04:04:24;;;;;;;15.97;12.07;;;;;;;5.26;86.79;101624.59;6093065;29;20248;-76
2022/11/29 04:07:54;;;;;;;16.57;12.23;;;;;;;5.21;86.64;101624.88;6084074;29;20669;-75
2022/11/29 04:11:57;;;;;;;14.93;12.70;;;;;;;5.13;87.13;101621.72;6084247;29;20231;-75
2022/11/29 04:15:52;;;;;;;17.70;13.03;;;;;;;5.07;86.77;101637.25;6085914;29;20244;-75
2022/11/29 04:19:53;;;;;;;18.83;11.10;;;;;;;5.07;87.45;101637.25;6085482;28;20767;-75
2022/11/29 04:23:54;;;;;;;18.13;12.67;;;;;;;5.11;87.26;101638.81;6088421;29;20232;-75
2022/11/29 04:27:57;;;;;;;17.23;11.40;;;;;;;5.26;86.99;101643.31;6092522;28;20235;-75
2022/11/29 04:31:37;;;;;;;19.03;12.07;;;;;;;5.30;86.20;101659.09;6091583;29;20313;-75
2022/11/29 04:35:14;;;;;;;15.80;11.40;;;;;;;5.22;86.79;101653.31;6071178;29;20507;-74
2022/11/29 04:38:51;;;;;;;18.07;13.03;;;;;;;5.16;86.37;101660.78;6088660;29;20812;-74
2022/11/29 04:42:35;;;;;;;19.20;12.50;;;;;;;5.14;86.49;101666.22;6085261;29;20233;-74
2022/11/29 04:46:26;;;;;;;22.30;13.30;;;;;;;5.25;86.67;101662.97;6091963;28;20240;-76
2022/11/29 04:50:11;;;;;;;17.63;12.03;;;;;;;5.27;86.73;101661.09;6084750;28;20235;-74
2022/11/29 04:53:50;;;;;;;15.93;11.53;;;;;;;5.26;86.15;101670.03;6099093;29;20240;-74
2022/11/29 04:57:22;;;;;;;15.67;10.67;;;;;;;5.21;86.24;101672.97;6095435;29;20236;-76
2022/11/29 05:00:50;;;;;;;19.90;12.47;;;;;;;5.14;86.69;101678.72;6087887;29;20334;-75
2022/11/29 05:04:19;;;;;;;17.37;11.80;;;;;;;5.10;86.72;101682.50;6087465;29;20236;-75
2022/11/29 05:07:47;;;;;;;16.80;10.47;;;;;;;5.05;86.71;101685.41;6086828;29;20239;-75
2022/11/29 05:11:18;;;;;;;15.90;13.30;;;;;;;5.00;86.92;101687.50;6086897;29;20239;-75
2022/11/29 05:14:54;;;;;;;19.53;12.50;;;;;;;4.99;86.80;101687.53;6080454;29;20224;-75
2022/11/29 05:18:21;;;;;;;16.20;12.27;;;;;;;5.02;87.50;101684.72;6093144;28;20781;-75
2022/11/29 05:21:52;;;;;;;21.17;14.53;;;;;;;4.95;87.82;101691.31;6088368;29;20269;-75
2022/11/29 05:25:34;;;;;;;22.13;13.97;;;;;;;4.96;87.20;101680.59;6080031;29;20572;-75
2022/11/29 05:29:02;;;;;;;20.90;12.03;;;;;;;5.03;87.40;101686.47;6086058;28;20241;-75
2022/11/29 05:32:33;;;;;;;19.93;12.50;;;;;;;5.08;87.37;101697.75;6084308;29;20236;-75
2022/11/29 05:36:03;;;;;;;23.70;14.00;;;;;;;5.08;87.27;101700.44;6083873;29;20326;-75
2022/11/29 05:39:41;;;;;;;21.23;14.60;;;;;;;5.02;86.97;101703.44;6080158;29;20236;-76
2022/11/29 05:43:18;;;;;;;21.53;12.90;;;;;;;5.08;86.90;101713.78;6093090;29;20364;-75
2022/11/29 05:46:51;;;;;;;19.57;14.13;;;;;;;5.02;87.20;101708.78;6075370;29;20231;-75
2022/11/29 05:50:21;;;;;;;23.63;14.57;;;;;;;4.92;87.19;101719.09;6080289;29;20240;-75
2022/11/29 05:53:49;;;;;;;19.87;13.90;;;;;;;4.95;87.81;101718.03;6091085;29;20288;-75
2022/11/29 05:57:22;;;;;;;18.23;12.27;;;;;;;4.93;87.44;101723.47;6088722;29;20236;-75
2022/11/29 06:00:50;;;;;;;22.93;15.03;;;;;;;5.00;87.08;101732.03;6075239;29;21219;-75
2022/11/29 06:04:15;;;;;;;18.83;12.93;;;;;;;5.01;86.89;101733.75;6074469;29;20815;-75
2022/11/29 06:07:44;;;;;;;17.47;11.10;;;;;;;4.96;87.08;101733.13;6077171;29;20249;-76
2022/11/29 06:11:15;;;;;;;22.73;15.10;;;;;;;4.96;87.37;101739.34;6079720;29;20227;-76
2022/11/29 06:14:55;;;;;;;17.67;12.77;;;;;;;4.94;86.96;101748.38;6065519;29;20269;-78
2022/11/29 06:18:32;;;;;;;19.40;12.43;;;;;;;4.89;87.29;101756.63;6088848;29;22068;-75
2022/11/29 06:22:01;;;;;;;23.87;13.40;;;;;;;4.92;87.19;101747.59;6092884;29;20241;-76
2022/11/29 06:25:36;;;;;;;17.67;13.63;;;;;;;4.96;87.08;101751.84;6084799;28;20552;-76
2022/11/29 06:29:18;;;;;;;18.03;12.97;;;;;;;4.90;87.33;101757.50;6087050;29;20304;-76
2022/11/29 06:32:47;;;;;;;19.77;14.00;;;;;;;4.77;88.17;101771.50;6091426;29;20244;-76
2022/11/29 06:36:19;;;;;;;21.80;12.53;;;;;;;4.91;87.63;101776.13;6087534;29;20358;-76
2022/11/29 06:39:40;;;;;;;24.13;12.47;;;;;;;5.00;87.11;101770.31;6064462;29;20307;-75
2022/11/29 06:43:02;;;;;;;18.33;13.27;;;;;;;5.03;86.91;101779.97;6086538;29;20244;-76
2022/11/29 06:46:30;;;;;;;20.67;13.33;;;;;;;5.11;87.28;101783.97;6073896;28;20223;-75
2022/11/29 06:49:59;;;;;;;25.10;16.37;;;;;;;4.99;86.78;101783.72;6051396;29;20767;-76
2022/11/29 06:53:30;;;;;;;22.27;14.50;;;;;;;4.88;86.83;101787.81;6056730;29;20228;-76
2022/11/29 06:56:59;;;;;;;27.07;14.67;;;;;;;4.79;87.44;101782.97;6063608;28;20252;-82
2022/11/29 07:00:22;;;;;;;26.60;15.30;;;;;;;4.84;87.94;101788.91;6055505;28;20637;-76
2022/11/29 07:04:14;;;;;;;17.50;12.87;;;;;;;5.01;87.76;101787.19;6064112;29;20244;-76
2022/11/29 07:07:37;;;;;;;20.43;13.33;;;;;;;5.13;86.65;101797.25;6071984;29;20233;-76
2022/11/29 07:10:59;;;;;;;21.73;14.60;;;;;;;5.12;86.57;101800.88;6071178;29;20283;-75
2022/11/29 07:14:21;;;;;;;23.13;14.77;;;;;;;5.03;87.28;101804.03;6071670;29;20244;-76
2022/11/29 07:17:54;;;;;;;25.73;16.73;;;;;;;5.10;87.05;101806.31;6087817;29;20224;-76
2022/11/29 07:21:25;;;;;;;22.23;13.83;;;;;;;5.05;86.97;101808.31;6090230;29;21496;-76
2022/11/29 07:24:59;;;;;;;17.00;13.27;;;;;;;5.13;86.83;101811.47;6079748;29;20505;-76
2022/11/29 07:28:34;;;;;;;16.33;14.10;;;;;;;5.23;87.02;101815.41;6099436;29;20225;-76
2022/11/29 07:32:03;;;;;;;22.43;14.50;;;;;;;5.13;86.69;101821.31;6096044;29;20236;-75
2022/11/29 07:35:32;;;;;;;24.10;14.97;;;;;;;5.11;86.73;101820.53;6086580;29;20251;-77
2022/11/29 07:39:03;;;;;;;20.47;15.77;;;;;;;5.12;86.85;101816.91;6095242;28;20229;-76
2022/11/29 07:42:33;;;;;;;32.40;17.77;;;;;;;5.15;86.55;101822.09;6083824;29;20236;-76
2022/11/29 07:45:55;;;;;;;19.07;13.37;;;;;;;5.02;86.75;101827.22;6090576;29;20247;-75
2022/11/29 07:49:16;;;;;;;24.30;12.63;;;;;;;5.36;89.86;101831.69;6091118;29;20315;-76
2022/11/29 07:52:37;;;;;;;26.43;14.47;;;;;;;5.47;87.00;101835.53;6090782;29;20240;-75
2022/11/29 07:55:58;;;;;;;21.63;14.87;;;;;;;5.61;87.08;101829.47;6094261;29;20236;-76
2022/11/29 07:59:21;;;;;;;21.77;14.97;;;;;;;5.31;86.15;101833.72;6092696;29;20319;-77
2022/11/29 08:02:41;;;;;;;18.43;13.53;;;;;;;5.23;86.46;101835.94;6085768;29;20240;-76
2022/11/29 08:06:03;;;;;;;17.93;13.53;;;;;;;5.22;86.33;101848.44;6094071;29;20504;-75
2022/11/29 08:09:23;;;;;;;22.43;14.37;;;;;;;5.19;86.71;101851.28;6083460;29;20606;-76
2022/11/29 08:12:47;;;;;;;23.33;15.20;;;;;;;5.24;86.09;101848.34;6089880;29;20250;-76
2022/11/29 08:16:14;;;;;;;19.30;14.77;;;;;;;5.28;86.13;101850.78;6093779;29;20547;-75
2022/11/29 08:19:36;;;;;;;23.53;14.43;;;;;;;5.39;86.04;101840.41;6074332;29;20228;-76
2022/11/29 08:22:59;;;;;;;20.63;13.93;;;;;;;5.08;86.16;101842.06;6096638;29;20261;-75
2022/11/29 08:26:21;;;;;;;25.00;13.13;;;;;;;5.10;86.77;101841.03;6072570;29;20228;-76
2022/11/29 08:29:42;;;;;;;21.10;14.63;;;;;;;5.24;86.60;101840.31;6074773;29;20232;-75
2022/11/29 08:33:04;;;;;;;20.53;14.50;;;;;;;5.27;85.99;101845.53;6097721;29;20240;-76
2022/11/29 08:36:25;;;;;;;20.10;13.53;;;;;;;5.23;86.11;101850.16;6088460;29;20267;-76
2022/11/29 08:39:46;;;;;;;18.83;12.77;;;;;;;5.30;86.08;101853.41;6079033;29;20227;-75
2022/11/29 08:43:07;;;;;;;20.83;12.47;;;;;;;5.24;86.03;101859.03;6100444;29;20510;-75
2022/11/29 08:50:06;;;;;;;26.57;13.90;;;;;;;5.12;86.45;101856.97;6082207;29;20244;-76
2022/11/29 08:53:43;;;;;;;19.97;12.40;;;;;;;5.28;87.02;101864.16;6087106;29;21014;-75
2022/11/29 08:57:04;;;;;;;23.07;13.83;;;;;;;5.36;86.39;101864.59;6093421;29;20244;-75
2022/11/29 09:00:25;;;;;;;20.47;14.50;;;;;;;5.39;86.04;101866.28;6082644;29;20263;-76
2022/11/29 09:04:06;;;;;;;26.33;15.73;;;;;;;5.52;85.66;101868.25;6084548;29;20240;-76
2022/11/29 09:07:28;;;;;;;23.00;14.23;;;;;;;5.52;85.31;101870.06;6072552;29;20449;-77
2022/11/29 09:10:50;;;;;;;20.17;13.77;;;;;;;5.50;85.21;101864.78;6089526;29;20244;-77
2022/11/29 09:14:15;;;;;;;15.97;11.83;;;;;;;5.55;85.10;101872.53;6089424;29;20229;-76
2022/11/29 09:17:37;;;;;;;24.97;15.20;;;;;;;5.56;85.37;101879.63;6084752;29;20330;-76
2022/11/29 09:20:58;;;;;;;19.77;12.77;;;;;;;5.51;85.23;101877.19;6101921;29;20231;-76
2022/11/29 09:24:20;;;;;;;15.70;12.10;;;;;;;5.36;85.39;101872.63;6083730;28;20228;-75
2022/11/29 09:27:41;;;;;;;19.03;11.43;;;;;;;5.46;85.51;101886.41;6088442;29;21000;-76
2022/11/29 09:31:07;;;;;;;22.67;12.23;;;;;;;5.49;85.69;101888.91;6085596;28;20361;-75
2022/11/29 09:34:28;;;;;;;18.43;13.13;;;;;;;5.53;85.19;101898.50;6084468;29;20228;-78
2022/11/29 09:37:49;;;;;;;20.20;12.37;;;;;;;5.57;84.90;101897.41;6100848;29;20327;-76
2022/11/29 09:41:31;;;;;;;18.00;14.67;;;;;;;5.52;85.65;101900.34;6093806;29;20228;-76
2022/11/29 09:45:02;;;;;;;18.03;14.67;;;;;;;5.45;85.06;101906.06;6083989;29;20239;-76
2022/11/29 09:48:37;;;;;;;23.60;15.40;;;;;;;5.49;85.89;101902.28;6096126;29;20338;-76
2022/11/29 09:52:10;;;;;;;22.93;13.53;;;;;;;5.59;85.18;101906.25;6096097;29;20528;-78
2022/11/29 09:55:49;;;;;;;20.90;13.07;;;;;;;5.71;85.13;101910.06;6090669;29;20235;-74
2022/11/29 09:59:17;;;;;;;18.90;13.97;;;;;;;5.63;84.87;101903.28;6089448;29;20939;-77
2022/11/29 10:02:44;;;;;;;18.93;14.50;;;;;;;5.66;85.15;101908.50;6088013;29;20232;-76
2022/11/29 10:06:12;;;;;;;23.77;14.97;;;;;;;5.75;85.05;101917.00;6087623;29;20232;-76
2022/11/29 10:09:40;;;;;;;22.93;13.57;;;;;;;5.80;84.85;101907.78;6073772;29;20311;-75
2022/11/29 10:13:07;;;;;;;20.67;13.07;;;;;;;5.64;84.76;101909.53;6096267;29;20232;-76
2022/11/29 10:16:39;;;;;;;20.80;15.50;;;;;;;5.68;85.07;101909.28;6084846;28;20239;-76
2022/11/29 10:20:06;;;;;;;19.90;13.23;;;;;;;5.66;84.77;101918.34;6074910;29;20240;-75
2022/11/29 10:23:33;;;;;;;28.27;13.97;;;;;;;5.68;84.86;101908.41;6085933;28;20236;-75
2022/11/29 10:26:54;;;;;;;17.77;14.10;;;;;;;5.73;85.47;101917.06;6083506;28;21326;-76
2022/11/29 10:30:16;;;;;;;19.73;13.00;;;;;;;5.79;84.96;101914.09;6080846;29;20228;-76
2022/11/29 10:33:40;;;;;;;16.70;12.60;;;;;;;5.78;84.89;101917.69;6087651;29;22199;-75
2022/11/29 10:37:01;;;;;;;18.70;12.47;;;;;;;5.81;84.36;101924.69;6090549;29;20548;-77
2022/11/29 10:40:29;;;;;;;19.30;14.83;;;;;;;5.74;84.40;101924.13;6081182;28;20224;-75
2022/11/29 10:43:51;;;;;;;17.20;13.47;;;;;;;5.82;84.38;101921.94;6097266;29;20233;-75
2022/11/29 10:47:11;;;;;;;21.80;12.80;;;;;;;5.93;84.07;101924.06;6094468;28;20244;-75
2022/11/29 10:50:36;;;;;;;24.73;14.53;;;;;;;5.78;84.43;101928.38;6093148;29;20224;-75
2022/11/29 10:54:11;;;;;;;18.40;13.13;;;;;;;5.63;84.88;101924.69;6089048;29;20229;-77
2022/11/29 10:57:33;;;;;;;20.17;14.00;;;;;;;5.76;85.18;101924.09;6084456;29;20236;-77
2022/11/29 11:00:57;;;;;;;21.60;12.77;;;;;;;5.78;85.06;101917.69;6087688;29;20236;-74
2022/11/29 11:04:27;;;;;;;23.87;15.23;;;;;;;5.90;84.87;101918.91;6087863;29;20233;-75
2022/11/29 11:07:56;;;;;;;27.23;16.80;;;;;;;5.93;84.39;101916.91;6092924;29;20232;-77
2022/11/29 11:11:25;;;;;;;14.47;10.50;;;;;;;6.80;92.80;101921.06;6092367;28;20235;-76
2022/11/29 11:14:46;;;;;;;15.03;11.47;;;;;;;7.54;92.82;101903.28;6085787;28;20244;-77
2022/11/29 11:18:20;;;;;;;21.37;15.10;;;;;;;7.09;83.51;101910.38;6103355;29;20243;-76
2022/11/29 11:21:41;;;;;;;27.83;16.23;;;;;;;6.29;83.46;101914.09;6084405;29;20266;-77
2022/11/29 11:25:06;;;;;;;16.97;11.93;;;;;;;6.27;84.24;101908.81;6082655;29;20696;-77
2022/11/29 11:28:28;;;;;;;18.40;13.97;;;;;;;5.91;84.32;101916.13;6091152;29;20228;-76
2022/11/29 11:31:54;;;;;;;22.93;13.13;;;;;;;5.83;84.73;101922.81;6089220;29;20252;-76
2022/11/29 11:35:23;;;;;;;18.50;13.23;;;;;;;5.78;85.29;101920.34;6081957;29;20232;-77
2022/11/29 11:38:50;;;;;;;20.73;14.00;;;;;;;5.82;85.24;101927.28;6091602;29;20236;-76
2022/11/29 11:45:55;;;;;;;19.20;13.83;;;;;;;6.02;84.95;101929.81;6087344;28;20312;-75
2022/11/29 11:49:25;;;;;;;18.43;14.53;;;;;;;6.02;84.48;101928.94;6092625;29;20259;-75
2022/11/29 11:52:51;;;;;;;15.80;12.37;;;;;;;6.04;84.72;101927.06;6082708;29;20228;-76
2022/11/29 11:56:13;;;;;;;23.03;15.60;;;;;;;6.14;84.52;101926.50;6090693;28;20236;-76
2022/11/29 11:59:36;;;;;;;21.13;12.93;;;;;;;6.28;83.72;101926.59;6074171;29;20235;-75
2022/11/29 12:02:59;;;;;;;15.27;12.37;;;;;;;5.97;84.42;101937.22;6089941;29;20253;-75
2022/11/29 12:06:28;;;;;;;22.93;14.80;;;;;;;6.01;84.71;101938.78;6087011;29;20228;-75
2022/11/29 12:09:54;;;;;;;22.37;16.03;;;;;;;6.04;84.99;101932.41;6074119;29;20255;-76
2022/11/29 12:13:21;;;;;;;18.63;12.87;;;;;;;6.06;84.88;101941.22;6088955;29;20725;-75
2022/11/29 12:16:47;;;;;;;24.40;15.80;;;;;;;6.06;85.01;101935.88;6083494;29;20661;-75
2022/11/29 12:20:17;;;;;;;20.03;12.17;;;;;;;6.00;85.54;101941.56;6072846;29;20228;-76
2022/11/29 12:23:44;;;;;;;22.23;13.97;;;;;;;6.03;85.79;101939.56;6085247;29;20580;-76
2022/11/29 12:27:05;;;;;;;24.40;16.07;;;;;;;6.13;85.58;101942.63;6084085;29;21836;-76
2022/11/29 12:30:26;;;;;;;20.03;14.43;;;;;;;6.18;85.14;101941.44;6084809;29;20263;-75
2022/11/29 12:33:55;;;;;;;18.73;14.10;;;;;;;6.16;85.51;101947.81;6096856;28;20240;-76
2022/11/29 12:37:21;;;;;;;22.83;12.87;;;;;;;6.22;85.62;101951.03;6096726;29;20240;-76
2022/11/29 12:40:47;;;;;;;17.73;15.00;;;;;;;6.33;85.49;101953.13;6089545;29;20224;-75
2022/11/29 12:44:21;;;;;;;18.63;11.70;;;;;;;6.39;85.10;101955.47;6094576;29;20245;-75
2022/11/29 12:47:50;;;;;;;21.27;12.47;;;;;;;6.38;84.59;101956.44;6089983;29;20224;-76
2022/11/29 12:51:22;;;;;;;21.60;14.17;;;;;;;6.25;85.08;101958.03;6089519;29;20257;-76
2022/11/29 12:54:57;;;;;;;17.80;13.63;;;;;;;6.24;85.34;101970.56;6086870;29;20267;-75
2022/11/29 12:58:26;;;;;;;15.93;12.83;;;;;;;6.15;85.41;101976.38;6096905;29;20236;-75
2022/11/29 13:02:04;;;;;;;23.57;13.73;;;;;;;6.15;85.50;101971.03;6087232;29;20236;-76
2022/11/29 13:05:41;;;;;;;21.40;14.87;;;;;;;6.01;86.30;101967.34;6083035;29;20240;-78
2022/11/29 13:09:18;;;;;;;18.63;12.57;;;;;;;6.06;85.90;101973.34;6088587;29;20236;-76
2022/11/29 13:12:42;;;;;;;25.80;17.10;;;;;;;5.94;86.31;101966.84;6079284;29;20225;-76
2022/11/29 13:16:09;;;;;;;23.73;17.17;;;;;;;6.02;85.83;101974.44;6081947;29;20231;-75
2022/11/29 13:19:38;;;;;;;25.80;13.70;;;;;;;5.98;86.05;101973.75;6067378;29;20232;-75
2022/11/29 13:23:11;;;;;;;18.77;13.97;;;;;;;5.94;86.29;101974.00;6091403;29;20241;-74
2022/11/29 13:26:34;;;;;;;27.30;15.43;;;;;;;6.01;86.44;101975.38;6084287;29;20228;-76
2022/11/29 13:29:55;;;;;;;23.67;15.43;;;;;;;6.01;86.35;101984.28;6075228;28;20239;-76
2022/11/29 13:33:23;;;;;;;29.70;17.37;;;;;;;5.82;86.83;101993.31;6080806;29;20613;-77
2022/11/29 13:36:59;;;;;;;25.83;15.30;;;;;;;5.88;86.69;101980.53;6083003;29;20231;-75
2022/11/29 13:40:30;;;;;;;20.63;13.77;;;;;;;5.87;86.62;101984.13;6073496;29;20255;-75
2022/11/29 13:44:01;;;;;;;19.23;14.00;;;;;;;5.87;86.89;101983.25;6080271;29;20224;-75
2022/11/29 13:47:22;;;;;;;27.43;15.20;;;;;;;5.96;86.43;101990.81;6082139;29;20237;-75
2022/11/29 13:50:44;;;;;;;18.80;13.90;;;;;;;5.97;86.54;101985.38;6079430;29;20232;-74
2022/11/29 13:54:07;;;;;;;26.63;15.53;;;;;;;5.97;86.45;101990.75;6078301;29;20795;-75
2022/11/29 13:57:28;;;;;;;24.53;17.10;;;;;;;6.01;86.29;101986.97;6075548;29;20252;-75
2022/11/29 14:00:51;;;;;;;22.43;16.03;;;;;;;6.05;86.35;101990.38;6078136;28;20231;-75
2022/11/29 14:04:25;;;;;;;21.90;12.33;;;;;;;6.03;86.37;101990.41;6079282;29;20260;-75
2022/11/29 14:08:19;;;;;;;25.57;15.43;;;;;;;5.77;86.98;101996.22;6080347;29;20240;-77
2022/11/29 14:11:47;;;;;;;28.27;15.03;;;;;;;5.84;87.00;101994.16;6080023;29;20722;-75
2022/11/29 14:15:30;;;;;;;22.00;15.47;;;;;;;5.89;86.86;102002.78;6078215;29;20242;-76
2022/11/29 14:19:23;;;;;;;24.47;16.40;;;;;;;5.90;87.05;102001.84;6075236;29;20224;-76
2022/11/29 14:23:15;;;;;;;24.77;14.00;;;;;;;5.93;87.07;101999.88;6082095;29;20232;-76
2022/11/29 14:26:36;;;;;;;24.23;14.37;;;;;;;5.86;87.44;102008.31;6087033;29;20419;-77
2022/11/29 14:29:58;;;;;;;22.93;15.37;;;;;;;5.85;87.16;102007.44;6079859;29;20228;-74
2022/11/29 14:33:30;;;;;;;21.93;13.50;;;;;;;5.79;87.16;102009.53;6094731;28;20237;-75
2022/11/29 14:36:58;;;;;;;22.43;15.60;;;;;;;5.76;87.69;102010.53;6092804;29;20237;-77
2022/11/29 14:40:28;;;;;;;27.50;15.57;;;;;;;5.84;87.62;102019.06;6090422;29;20227;-75
2022/11/29 14:43:49;;;;;;;28.00;16.63;;;;;;;5.93;87.47;102010.56;6093031;29;20236;-76
2022/11/29 14:47:20;;;;;;;20.10;13.40;;;;;;;5.98;87.59;102018.38;6095710;28;20682;-77
2022/11/29 14:50:41;;;;;;;30.27;15.87;;;;;;;5.94;87.38;102025.72;6093726;29;20232;-75
2022/11/29 14:54:07;;;;;;;20.50;15.37;;;;;;;5.96;87.63;102020.25;6091183;29;20526;-75
2022/11/29 14:58:08;;;;;;;28.73;17.37;;;;;;;5.93;87.53;102013.25;6084507;28;20248;-76
2022/11/29 15:01:29;;;;;;;17.27;13.33;;;;;;;5.96;87.70;102021.13;6096085;28;20335;-75
2022/11/29 15:04:52;;;;;;;26.17;15.07;;;;;;;5.94;87.86;102017.69;6079841;29;20318;-76
2022/11/29 15:08:17;;;;;;;19.07;14.33;;;;;;;6.14;88.65;102013.94;6094324;29;20232;-76
2022/11/29 15:11:50;;;;;;;21.80;15.37;;;;;;;6.08;87.82;102015.16;6092401;29;20350;-76
2022/11/29 15:15:33;;;;;;;23.30;16.30;;;;;;;6.00;87.78;102019.16;6078466;29;20263;-75
2022/11/29 15:19:12;;;;;;;27.67;16.30;;;;;;;5.97;88.04;102019.31;6096030;29;20236;-75
2022/11/29 15:22:47;;;;;;;27.40;17.33;;;;;;;5.95;88.57;102019.38;6087344;29;20681;-76
2022/11/29 15:26:17;;;;;;;20.00;14.70;;;;;;;5.97;88.37;102027.34;6089959;29;20227;-75
2022/11/29 15:29:39;;;;;;;23.73;16.07;;;;;;;6.11;89.19;102020.31;6080621;28;20228;-74
2022/11/29 15:33:02;;;;;;;21.50;17.43;;;;;;;6.03;88.25;102033.25;6093406;29;20813;-75
2022/11/29 15:36:25;;;;;;;21.50;15.00;;;;;;;5.92;88.15;102038.31;6099073;29;20235;-75
2022/11/29 15:39:46;;;;;;;21.67;15.90;;;;;;;5.85;88.46;102036.88;6081850;29;20245;-75
2022/11/29 15:43:17;;;;;;;27.60;17.73;;;;;;;5.91;88.87;102043.72;6088533;29;20245;-75
2022/11/29 15:46:39;;;;;;;20.30;15.03;;;;;;;5.87;88.62;102047.47;6090989;29;20231;-76
2022/11/29 15:50:00;;;;;;;30.63;15.90;;;;;;;5.93;88.37;102052.53;6083505;29;20327;-76
2022/11/29 15:53:27;;;;;;;19.53;16.03;;;;;;;5.81;88.55;102054.00;6084471;29;20289;-77
2022/11/29 15:56:51;;;;;;;16.83;13.37;;;;;;;5.81;88.58;102058.47;6084809;29;20240;-76
2022/11/29 16:00:18;;;;;;;25.60;16.90;;;;;;;5.87;88.35;102053.72;6073512;29;20235;-78
2022/11/29 16:03:45;;;;;;;24.50;16.67;;;;;;;5.89;88.83;102059.84;6077987;29;20245;-78
2022/11/29 16:07:06;;;;;;;27.07;14.10;;;;;;;5.95;88.19;102064.88;6088564;28;20266;-77